createdAt,value
2015-11-18T00:00:47.464Z,14.1
2015-11-18T00:01:47.420Z,14
2015-11-18T00:02:47.360Z,14
2015-11-18T00:03:47.316Z,14
2015-11-18T00:04:47.256Z,14.1
2015-11-18T00:05:47.212Z,14.1
2015-11-18T00:06:47.152Z,14.1
2015-11-18T00:07:47.109Z,14.1
2015-11-18T00:08:47.049Z,14.1
2015-11-18T00:09:47.004Z,14.1
2015-11-18T00:10:46.945Z,14.1
2015-11-18T00:11:46.901Z,14.1
2015-11-18T00:12:46.841Z,14.2
2015-11-18T00:13:46.797Z,14.2
2015-11-18T00:14:46.735Z,14.2
2015-11-18T00:15:46.690Z,14.2
2015-11-18T00:16:46.631Z,14.2
2015-11-18T00:17:46.586Z,14.1
2015-11-18T00:18:46.542Z,14.1
2015-11-18T00:19:46.482Z,14.2
2015-11-18T00:20:46.454Z,14.1
2015-11-18T00:21:46.379Z,14.1
2015-11-18T00:22:46.334Z,14.1
2015-11-18T00:23:46.275Z,14.2
2015-11-18T00:24:46.230Z,14.2
2015-11-18T00:25:46.170Z,14.3
2015-11-18T00:26:46.126Z,14.4
2015-11-18T00:27:46.067Z,14.4
2015-11-18T00:28:46.023Z,14.5
2015-11-18T00:29:45.962Z,14.5
2015-11-18T00:30:45.919Z,14.5
2015-11-18T00:31:45.859Z,14.5
2015-11-18T00:32:45.815Z,14.4
2015-11-18T00:33:45.755Z,14.5
2015-11-18T00:34:45.711Z,14.5
2015-11-18T00:35:45.651Z,14.6
2015-11-18T00:36:45.607Z,14.6
2015-11-18T00:37:45.548Z,14.6
2015-11-18T00:38:45.503Z,14.6
2015-11-18T00:39:45.459Z,14.8
2015-11-18T00:40:45.400Z,14.7
2015-11-18T00:41:45.340Z,14.8
2015-11-18T00:42:45.295Z,14.8
2015-11-18T00:43:45.236Z,14.9
2015-11-18T00:44:45.192Z,15
2015-11-18T00:45:45.148Z,15.1
2015-11-18T00:46:45.088Z,15.2
2015-11-18T00:47:45.045Z,15.2
2015-11-18T00:48:44.984Z,15.3
2015-11-18T00:49:44.925Z,15.3
2015-11-18T00:50:44.880Z,15.4
2015-11-18T00:51:44.837Z,15.4
2015-11-18T00:52:44.776Z,15.3
2015-11-18T00:53:44.714Z,15.3
2015-11-18T00:54:44.670Z,15.4
2015-11-18T00:55:44.625Z,15.4
2015-11-18T00:56:44.566Z,15.3
2015-11-18T00:57:44.506Z,15.2
2015-11-18T00:58:44.462Z,15.1
2015-11-18T00:59:44.417Z,15.1
2015-11-18T01:00:44.358Z,15.2
2015-11-18T01:01:44.314Z,15.2
2015-11-18T01:02:44.255Z,15.1
2015-11-18T01:03:44.210Z,15.2
2015-11-18T01:04:44.150Z,15.2
2015-11-18T01:05:44.106Z,15.2
2015-11-18T01:06:44.046Z,15.1
2015-11-18T01:07:44.003Z,15.1
2015-11-18T01:08:43.942Z,15
2015-11-18T01:09:43.899Z,15
2015-11-18T01:10:43.839Z,15
2015-11-18T01:11:43.795Z,15
2015-11-18T01:12:43.735Z,15
2015-11-18T01:13:43.691Z,15.1
2015-11-18T01:14:43.631Z,15.1
2015-11-18T01:15:43.586Z,15.1
2015-11-18T01:16:43.543Z,15.1
2015-11-18T01:17:43.483Z,15
2015-11-18T01:18:43.439Z,15
2015-11-18T01:19:43.379Z,15
2015-11-18T01:20:43.336Z,15
2015-11-18T01:21:43.275Z,14.9
2015-11-18T01:22:43.231Z,14.9
2015-11-18T01:23:43.172Z,14.8
2015-11-18T01:24:43.127Z,14.9
2015-11-18T01:25:43.068Z,14.9
2015-11-18T01:26:43.024Z,14.8
2015-11-18T01:27:42.963Z,14.8
2015-11-18T01:28:42.904Z,14.8
2015-11-18T01:29:42.860Z,14.7
2015-11-18T01:30:42.816Z,14.6
2015-11-18T01:31:42.756Z,14.7
2015-11-18T01:32:42.694Z,14.6
2015-11-18T01:33:42.649Z,14.6
2015-11-18T01:34:42.590Z,14.6
2015-11-18T01:35:42.546Z,14.6
2015-11-18T01:36:42.485Z,14.8
2015-11-18T01:37:42.441Z,14.8
2015-11-18T01:38:42.382Z,14.8
2015-11-18T01:39:42.338Z,14.8
2015-11-18T01:40:42.278Z,14.7
2015-11-18T01:41:42.235Z,14.8
2015-11-18T01:42:42.174Z,14.7
2015-11-18T01:43:42.129Z,14.7
2015-11-18T01:44:42.071Z,14.6
2015-11-18T01:45:42.026Z,14.5
2015-11-18T01:46:41.966Z,14.5
2015-11-18T01:47:41.922Z,14.4
2015-11-18T01:48:41.862Z,14.3
2015-11-18T01:49:41.818Z,14.4
2015-11-18T01:50:41.759Z,14.4
2015-11-18T01:51:41.715Z,14.4
2015-11-18T01:52:41.655Z,14.4
2015-11-18T01:53:41.595Z,14.3
2015-11-18T01:54:41.551Z,14.3
2015-11-18T01:55:41.491Z,14.4
2015-11-18T01:56:41.447Z,14.4
2015-11-18T01:57:41.388Z,14.4
2015-11-18T01:58:41.344Z,14.4
2015-11-18T01:59:41.284Z,14.4
2015-11-18T02:00:41.240Z,14.3
2015-11-18T02:01:41.180Z,14.3
2015-11-18T02:02:41.135Z,14.3
2015-11-18T02:03:41.076Z,14.3
2015-11-18T02:04:41.032Z,14.3
2015-11-18T02:05:40.972Z,14.2
2015-11-18T02:06:40.929Z,14.2
2015-11-18T02:07:40.884Z,14.2
2015-11-18T02:08:40.824Z,14.3
2015-11-18T02:09:40.765Z,14.3
2015-11-18T02:10:40.702Z,14.3
2015-11-18T02:11:40.657Z,14.2
2015-11-18T02:12:40.613Z,14.2
2015-11-18T02:13:40.554Z,14.2
2015-11-18T02:14:40.510Z,14.2
2015-11-18T02:15:40.450Z,14.2
2015-11-18T02:16:40.406Z,14.3
2015-11-18T02:17:40.345Z,14.2
2015-11-18T02:18:40.302Z,14.3
2015-11-18T02:19:40.257Z,14.3
2015-11-18T02:20:40.198Z,14.2
2015-11-18T02:21:40.138Z,14.2
2015-11-18T02:22:40.095Z,14.2
2015-11-18T02:23:40.035Z,14.2
2015-11-18T02:24:39.990Z,14.2
2015-11-18T02:25:39.931Z,14.1
2015-11-18T02:26:39.886Z,14.1
2015-11-18T02:27:39.827Z,14.1
2015-11-18T02:28:39.782Z,14.1
2015-11-18T02:29:39.723Z,14.1
2015-11-18T02:30:39.679Z,14.1
2015-11-18T02:31:39.619Z,14.1
2015-11-18T02:32:39.560Z,14.1
2015-11-18T02:33:39.516Z,14.1
2015-11-18T02:34:39.470Z,14.1
2015-11-18T02:35:39.412Z,14.1
2015-11-18T02:36:39.351Z,14.1
2015-11-18T02:37:39.307Z,14.2
2015-11-18T02:38:51.998Z,14.2
2015-11-18T02:39:39.219Z,14
2015-11-18T02:40:39.159Z,14.1
2015-11-18T02:41:39.100Z,14.2
2015-11-18T02:42:39.056Z,14.2
2015-11-18T02:43:38.996Z,14.1
2015-11-18T02:44:38.952Z,14.1
2015-11-18T02:45:38.892Z,14
2015-11-18T02:46:38.848Z,14
2015-11-18T02:47:38.788Z,13.9
2015-11-18T02:48:38.741Z,13.9
2015-11-18T02:49:38.681Z,13.9
2015-11-18T02:50:38.653Z,13.8
2015-11-18T02:51:38.578Z,13.8
2015-11-18T02:52:38.533Z,13.8
2015-11-18T02:53:38.473Z,13.8
2015-11-18T02:54:38.414Z,13.8
2015-11-18T02:55:38.370Z,13.8
2015-11-18T02:56:38.311Z,13.8
2015-11-18T02:57:38.266Z,13.8
2015-11-18T02:58:38.206Z,13.8
2015-11-18T02:59:38.162Z,13.8
2015-11-18T03:00:38.103Z,13.8
2015-11-18T03:01:38.059Z,13.8
2015-11-18T03:02:37.998Z,13.8
2015-11-18T03:03:37.955Z,13.8
2015-11-18T03:04:37.895Z,13.8
2015-11-18T03:05:37.836Z,13.8
2015-11-18T03:06:37.791Z,13.7
2015-11-18T03:07:37.731Z,13.7
2015-11-18T03:08:37.687Z,13.7
2015-11-18T03:09:37.658Z,13.7
2015-11-18T03:10:37.583Z,13.6
2015-11-18T03:11:37.540Z,13.6
2015-11-18T03:12:37.480Z,13.6
2015-11-18T03:13:37.420Z,13.5
2015-11-18T03:14:37.375Z,13.5
2015-11-18T03:15:37.317Z,13.5
2015-11-18T03:16:37.256Z,13.4
2015-11-18T03:17:37.212Z,13.4
2015-11-18T03:18:37.153Z,13.4
2015-11-18T03:19:37.108Z,13.4
2015-11-18T03:20:37.048Z,13.4
2015-11-18T03:21:37.005Z,13.3
2015-11-18T03:22:36.944Z,13.4
2015-11-18T03:23:36.900Z,13.4
2015-11-18T03:24:36.841Z,13.3
2015-11-18T03:25:36.781Z,13.3
2015-11-18T03:26:36.734Z,13.3
2015-11-18T03:27:36.674Z,13.3
2015-11-18T03:28:36.615Z,13.3
2015-11-18T03:29:36.570Z,13.3
2015-11-18T03:30:36.511Z,13.3
2015-11-18T03:31:36.466Z,13.4
2015-11-18T03:32:36.407Z,13.4
2015-11-18T03:33:36.347Z,13.3
2015-11-18T03:34:36.303Z,13.4
2015-11-18T03:35:36.243Z,13.4
2015-11-18T03:36:36.199Z,13.4
2015-11-18T03:37:36.139Z,13.5
2015-11-18T03:38:36.079Z,13.5
2015-11-18T03:39:36.036Z,13.5
2015-11-18T03:40:35.991Z,13.5
2015-11-18T03:41:35.932Z,13.5
2015-11-18T03:42:35.872Z,13.5
2015-11-18T03:43:35.827Z,13.4
2015-11-18T03:44:35.768Z,13.4
2015-11-18T03:45:35.709Z,13.4
2015-11-18T03:46:35.664Z,13.4
2015-11-18T03:47:35.605Z,13.4
2015-11-18T03:48:35.561Z,13.3
2015-11-18T03:49:35.500Z,13.3
2015-11-18T03:50:35.457Z,13.2
2015-11-18T03:51:35.397Z,13.3
2015-11-18T03:52:35.338Z,13.2
2015-11-18T03:53:35.293Z,13.2
2015-11-18T03:54:35.233Z,13.2
2015-11-18T03:55:35.189Z,13.2
2015-11-18T03:56:35.130Z,13.2
2015-11-18T03:57:35.069Z,13.2
2015-11-18T03:58:35.025Z,13.2
2015-11-18T03:59:34.968Z,13.2
2015-11-18T04:00:34.907Z,13.1
2015-11-18T04:01:34.864Z,13.1
2015-11-18T04:02:34.804Z,13.1
2015-11-18T04:03:34.760Z,13.1
2015-11-18T04:04:34.700Z,13.1
2015-11-18T04:05:34.637Z,13
2015-11-18T04:06:34.593Z,12.9
2015-11-18T04:07:34.534Z,12.8
2015-11-18T04:09:34.429Z,12.6
2015-11-18T04:10:34.370Z,12.6
2015-11-18T04:11:34.326Z,12.6
2015-11-18T04:12:34.267Z,12.6
2015-11-18T04:13:34.222Z,12.6
2015-11-18T04:14:34.162Z,12.5
2015-11-18T04:15:34.118Z,12.5
2015-11-18T04:16:34.058Z,12.5
2015-11-18T04:17:33.999Z,12.6
2015-11-18T04:18:33.954Z,12.6
2015-11-18T04:19:33.911Z,12.5
2015-11-18T04:20:33.851Z,12.5
2015-11-18T04:21:33.791Z,12.5
2015-11-18T04:22:33.747Z,12.6
2015-11-18T04:23:33.687Z,12.5
2015-11-18T04:24:33.643Z,12.5
2015-11-18T04:25:33.583Z,12.6
2015-11-18T04:26:33.539Z,12.6
2015-11-18T04:27:33.479Z,12.6
2015-11-18T04:28:33.436Z,12.6
2015-11-18T04:29:33.376Z,12.6
2015-11-18T04:30:33.331Z,12.6
2015-11-18T04:31:33.272Z,12.6
2015-11-18T04:32:33.211Z,12.6
2015-11-18T04:33:33.167Z,12.7
2015-11-18T04:34:33.108Z,12.7
2015-11-18T04:35:33.064Z,12.7
2015-11-18T04:36:33.004Z,12.7
2015-11-18T04:37:32.961Z,12.7
2015-11-18T04:38:32.901Z,12.7
2015-11-18T04:39:32.841Z,12.6
2015-11-18T04:40:32.797Z,12.7
2015-11-18T04:41:32.737Z,12.6
2015-11-18T04:42:32.692Z,12.6
2015-11-18T04:43:32.634Z,12.6
2015-11-18T04:44:32.589Z,12.6
2015-11-18T04:45:32.529Z,12.6
2015-11-18T04:46:32.483Z,12.6
2015-11-18T04:47:32.422Z,12.6
2015-11-18T04:48:32.363Z,12.7
2015-11-18T04:49:32.318Z,12.7
2015-11-18T04:50:32.258Z,12.7
2015-11-18T04:51:32.214Z,12.7
2015-11-18T04:52:32.155Z,12.7
2015-11-18T04:53:32.111Z,12.7
2015-11-18T04:54:32.050Z,12.7
2015-11-18T04:55:31.991Z,12.7
2015-11-18T04:56:31.947Z,12.7
2015-11-18T04:57:31.888Z,12.7
2015-11-18T04:58:31.843Z,12.7
2015-11-18T04:59:31.784Z,12.6
2015-11-18T05:00:31.739Z,12.6
2015-11-18T05:01:31.695Z,12.6
2015-11-18T05:02:31.620Z,12.6
2015-11-18T05:03:31.576Z,12.6
2015-11-18T05:04:31.516Z,12.7
2015-11-18T05:05:31.488Z,12.7
2015-11-18T05:06:31.427Z,12.7
2015-11-18T05:07:31.369Z,12.7
2015-11-18T05:08:31.308Z,12.7
2015-11-18T05:09:31.264Z,12.7
2015-11-18T05:10:31.205Z,12.7
2015-11-18T05:11:31.160Z,12.7
2015-11-18T05:12:31.100Z,12.7
2015-11-18T05:13:31.057Z,12.7
2015-11-18T05:14:30.997Z,12.7
2015-11-18T05:15:30.937Z,12.7
2015-11-18T05:16:30.893Z,12.7
2015-11-18T05:17:30.833Z,12.6
2015-11-18T05:18:30.789Z,12.7
2015-11-18T05:19:30.729Z,12.7
2015-11-18T05:20:30.685Z,12.8
2015-11-18T05:21:30.625Z,12.8
2015-11-18T05:22:30.597Z,12.7
2015-11-18T05:23:30.522Z,12.7
2015-11-18T05:24:30.462Z,12.7
2015-11-18T05:25:30.418Z,12.7
2015-11-18T05:26:30.355Z,12.7
2015-11-18T05:27:30.311Z,12.7
2015-11-18T05:28:30.251Z,12.8
2015-11-18T05:29:30.191Z,12.8
2015-11-18T05:30:30.147Z,12.8
2015-11-18T05:31:30.088Z,12.8
2015-11-18T05:32:30.043Z,12.7
2015-11-18T05:33:29.984Z,12.8
2015-11-18T05:34:29.924Z,12.7
2015-11-18T05:35:29.880Z,12.7
2015-11-18T05:36:29.820Z,12.7
2015-11-18T05:37:29.776Z,12.7
2015-11-18T05:38:29.715Z,12.7
2015-11-18T05:39:29.657Z,12.6
2015-11-18T05:40:29.612Z,12.6
2015-11-18T05:41:29.568Z,12.6
2015-11-18T05:42:29.509Z,12.6
2015-11-18T05:43:29.465Z,12.6
2015-11-18T05:44:29.404Z,12.6
2015-11-18T05:45:29.345Z,12.7
2015-11-18T05:46:29.285Z,12.7
2015-11-18T05:47:29.241Z,12.7
2015-11-18T05:48:29.212Z,12.7
2015-11-18T05:49:29.138Z,12.7
2015-11-18T05:50:29.077Z,12.7
2015-11-18T05:51:29.033Z,12.7
2015-11-18T05:52:28.974Z,12.8
2015-11-18T05:53:28.929Z,12.8
2015-11-18T05:54:28.870Z,12.8
2015-11-18T05:55:28.809Z,12.8
2015-11-18T05:56:28.781Z,12.8
2015-11-18T05:57:28.706Z,12.8
2015-11-18T05:58:28.662Z,12.8
2015-11-18T05:59:28.602Z,12.8
2015-11-18T06:00:28.543Z,12.8
2015-11-18T06:01:28.482Z,12.8
2015-11-18T06:02:28.439Z,12.8
2015-11-18T06:03:28.395Z,12.9
2015-11-18T06:04:28.351Z,12.9
2015-11-18T06:05:28.275Z,12.9
2015-11-18T06:06:28.231Z,12.9
2015-11-18T06:07:28.168Z,12.9
2015-11-18T06:08:28.124Z,12.9
2015-11-18T06:09:28.064Z,12.9
2015-11-18T06:10:28.020Z,12.9
2015-11-18T06:11:27.961Z,12.8
2015-11-18T06:12:27.900Z,12.8
2015-11-18T06:13:27.857Z,12.8
2015-11-18T06:14:27.797Z,12.8
2015-11-18T06:15:27.753Z,12.8
2015-11-18T06:16:27.693Z,12.8
2015-11-18T06:17:27.634Z,12.8
2015-11-18T06:18:27.590Z,12.8
2015-11-18T06:19:27.545Z,12.8
2015-11-18T06:20:27.486Z,12.8
2015-11-18T06:21:27.425Z,12.8
2015-11-18T06:22:27.366Z,12.8
2015-11-18T06:23:27.322Z,12.8
2015-11-18T06:24:27.278Z,12.8
2015-11-18T06:25:27.218Z,12.7
2015-11-18T06:26:27.158Z,12.7
2015-11-18T06:27:27.114Z,12.6
2015-11-18T06:28:27.054Z,12.7
2015-11-18T06:29:27.011Z,12.7
2015-11-18T06:30:26.951Z,12.7
2015-11-18T06:31:26.907Z,12.7
2015-11-18T06:32:26.862Z,12.6
2015-11-18T06:33:26.787Z,12.6
2015-11-18T06:34:26.743Z,12.6
2015-11-18T06:35:26.683Z,12.6
2015-11-18T06:36:26.639Z,12.6
2015-11-18T06:37:26.579Z,12.6
2015-11-18T06:38:26.536Z,12.6
2015-11-18T06:39:26.476Z,12.6
2015-11-18T06:40:26.416Z,12.6
2015-11-18T06:41:26.372Z,12.5
2015-11-18T06:42:26.312Z,12.6
2015-11-18T06:43:26.268Z,12.6
2015-11-18T06:44:26.206Z,12.6
2015-11-18T06:45:26.161Z,12.6
2015-11-18T06:46:26.101Z,12.6
2015-11-18T06:47:26.042Z,12.6
2015-11-18T06:48:25.997Z,12.5
2015-11-18T06:49:25.938Z,12.6
2015-11-18T06:50:25.894Z,12.5
2015-11-18T06:51:25.834Z,12.5
2015-11-18T06:52:25.774Z,12.5
2015-11-18T06:53:25.730Z,12.5
2015-11-18T06:54:25.686Z,12.5
2015-11-18T06:55:25.626Z,12.5
2015-11-18T06:56:25.566Z,12.5
2015-11-18T06:57:25.506Z,12.5
2015-11-18T06:58:25.463Z,12.5
2015-11-18T06:59:25.403Z,12.5
2015-11-18T07:00:25.359Z,12.5
2015-11-18T07:01:25.299Z,12.4
2015-11-18T07:02:25.255Z,12.4
2015-11-18T07:03:25.195Z,12.4
2015-11-18T07:04:25.135Z,12.4
2015-11-18T07:05:25.091Z,12.4
2015-11-18T07:06:25.031Z,12.3
2015-11-18T07:07:24.988Z,12.3
2015-11-18T07:09:24.883Z,12.2
2015-11-18T07:10:24.824Z,12.1
2015-11-18T07:11:24.779Z,12.1
2015-11-18T07:12:24.710Z,12
2015-11-18T07:13:24.654Z,11.9
2015-11-18T07:14:24.584Z,11.8
2015-11-18T07:15:24.512Z,11.8
2015-11-18T07:16:24.456Z,11.9
2015-11-18T07:17:24.391Z,11.9
2015-11-18T07:18:24.327Z,11.9
2015-11-18T07:19:24.278Z,12
2015-11-18T07:20:24.214Z,12
2015-11-18T07:21:49.837Z,12
2015-11-18T07:22:24.120Z,12
2015-11-18T07:23:24.059Z,12
2015-11-18T07:24:23.997Z,12
2015-11-18T07:25:23.936Z,12
2015-11-18T07:26:23.891Z,12.1
2015-11-18T07:27:23.829Z,12.1
2015-11-18T07:28:23.784Z,12.1
2015-11-18T07:29:23.723Z,12.1
2015-11-18T07:30:23.678Z,12
2015-11-18T07:31:23.618Z,12
2015-11-18T07:32:23.590Z,12.1
2015-11-18T07:33:23.514Z,12
2015-11-18T07:34:23.454Z,12
2015-11-18T07:35:23.409Z,12
2015-11-18T07:36:23.350Z,12
2015-11-18T07:37:23.305Z,12
2015-11-18T07:38:23.245Z,12
2015-11-18T07:39:23.185Z,12
2015-11-18T07:40:23.141Z,12
2015-11-18T07:41:23.081Z,12
2015-11-18T07:42:23.036Z,12
2015-11-18T07:43:22.977Z,12.1
2015-11-18T07:44:22.917Z,12.1
2015-11-18T07:45:22.874Z,12.1
2015-11-18T07:46:22.830Z,12
2015-11-18T07:47:22.769Z,12.1
2015-11-18T07:48:22.710Z,12.1
2015-11-18T07:49:22.651Z,12.1
2015-11-18T07:50:22.606Z,12.1
2015-11-18T07:51:22.547Z,12.1
2015-11-18T07:52:22.503Z,12.1
2015-11-18T07:53:22.442Z,12.1
2015-11-18T07:54:22.399Z,12.1
2015-11-18T07:55:22.355Z,12.1
2015-11-18T07:56:22.279Z,12.1
2015-11-18T07:57:22.235Z,12.1
2015-11-18T07:58:22.175Z,12.1
2015-11-18T07:59:22.131Z,12.1
2015-11-18T08:00:22.071Z,12.1
2015-11-18T08:01:22.011Z,12.1
2015-11-18T08:02:21.968Z,12.2
2015-11-18T08:03:21.908Z,12.1
2015-11-18T08:04:21.848Z,12.2
2015-11-18T08:05:21.805Z,12.2
2015-11-18T08:06:21.744Z,12.2
2015-11-18T08:07:21.697Z,12.2
2015-11-18T08:08:21.653Z,12.2
2015-11-18T08:09:21.578Z,12.2
2015-11-18T08:10:21.533Z,12.2
2015-11-18T08:11:21.474Z,12.2
2015-11-18T08:12:21.429Z,12.2
2015-11-18T08:13:21.385Z,12.2
2015-11-18T08:14:21.327Z,12.2
2015-11-18T08:15:21.266Z,12.2
2015-11-18T08:16:21.207Z,12.2
2015-11-18T08:17:21.163Z,12.2
2015-11-18T08:18:21.103Z,12.2
2015-11-18T08:19:21.058Z,12.2
2015-11-18T08:20:20.999Z,12.2
2015-11-18T08:21:20.955Z,12.2
2015-11-18T08:22:20.894Z,12.2
2015-11-18T08:23:20.851Z,12.2
2015-11-18T08:24:20.791Z,12.2
2015-11-18T08:25:20.732Z,12.2
2015-11-18T08:26:20.671Z,12.2
2015-11-18T08:27:20.628Z,12.2
2015-11-18T08:28:20.567Z,12.2
2015-11-18T08:29:20.523Z,12.2
2015-11-18T08:30:20.463Z,12.2
2015-11-18T08:31:20.419Z,12.2
2015-11-18T08:32:20.360Z,12.2
2015-11-18T08:33:20.299Z,12.2
2015-11-18T08:34:20.257Z,12.2
2015-11-18T08:35:20.196Z,12.1
2015-11-18T08:36:20.152Z,12.1
2015-11-18T08:37:20.092Z,12.1
2015-11-18T08:38:20.032Z,12
2015-11-18T08:39:19.988Z,12
2015-11-18T08:40:19.929Z,12
2015-11-18T08:41:19.885Z,12
2015-11-18T08:42:19.825Z,11.9
2015-11-18T08:43:19.781Z,12
2015-11-18T08:44:19.721Z,12
2015-11-18T08:45:19.662Z,11.9
2015-11-18T08:46:19.617Z,11.9
2015-11-18T08:47:19.554Z,11.9
2015-11-18T08:48:19.510Z,11.9
2015-11-18T08:49:19.451Z,11.9
2015-11-18T08:50:19.391Z,12
2015-11-18T08:51:19.347Z,11.9
2015-11-18T08:52:19.287Z,12
2015-11-18T08:53:19.243Z,11.9
2015-11-18T08:54:19.183Z,12
2015-11-18T08:55:19.139Z,12
2015-11-18T08:56:19.079Z,12
2015-11-18T08:57:19.020Z,12
2015-11-18T08:58:18.975Z,12
2015-11-18T08:59:18.915Z,12
2015-11-18T09:00:18.856Z,12
2015-11-18T09:01:18.812Z,12
2015-11-18T09:02:18.752Z,12
2015-11-18T09:03:18.709Z,11.9
2015-11-18T09:04:18.648Z,11.9
2015-11-18T09:05:18.589Z,11.9
2015-11-18T09:06:18.545Z,11.9
2015-11-18T09:07:18.484Z,11.9
2015-11-18T09:08:18.440Z,11.9
2015-11-18T09:09:18.381Z,12
2015-11-18T09:10:18.320Z,12
2015-11-18T09:11:18.277Z,11.9
2015-11-18T09:12:18.217Z,11.9
2015-11-18T09:13:18.173Z,11.8
2015-11-18T09:14:18.114Z,11.8
2015-11-18T09:15:18.054Z,11.7
2015-11-18T09:16:18.010Z,11.6
2015-11-18T09:17:17.950Z,11.6
2015-11-18T09:18:17.890Z,11.5
2015-11-18T09:19:17.846Z,11.5
2015-11-18T09:20:17.787Z,11.4
2015-11-18T09:21:17.743Z,11.4
2015-11-18T09:22:17.683Z,11.3
2015-11-18T09:23:17.623Z,11.4
2015-11-18T09:24:17.579Z,11.4
2015-11-18T09:25:17.534Z,11.5
2015-11-18T09:26:17.472Z,11.5
2015-11-18T09:27:17.412Z,11.6
2015-11-18T09:28:17.352Z,11.6
2015-11-18T09:29:17.308Z,11.7
2015-11-18T09:30:17.248Z,11.7
2015-11-18T09:31:17.203Z,11.8
2015-11-18T09:32:17.145Z,11.8
2015-11-18T09:33:17.085Z,11.9
2015-11-18T09:34:17.041Z,11.8
2015-11-18T09:35:16.997Z,11.8
2015-11-18T09:36:16.936Z,11.8
2015-11-18T09:37:16.877Z,11.8
2015-11-18T09:38:16.833Z,11.9
2015-11-18T09:39:16.773Z,11.9
2015-11-18T09:40:16.728Z,11.8
2015-11-18T09:41:16.670Z,11.9
2015-11-18T09:42:16.609Z,11.8
2015-11-18T09:43:16.566Z,11.9
2015-11-18T09:44:16.505Z,11.9
2015-11-18T09:45:16.478Z,11.9
2015-11-18T09:46:16.403Z,11.7
2015-11-18T09:47:16.342Z,11.7
2015-11-18T09:48:16.297Z,11.7
2015-11-18T09:49:16.239Z,11.7
2015-11-18T09:50:16.179Z,11.6
2015-11-18T09:51:16.135Z,11.6
2015-11-18T09:52:16.075Z,11.5
2015-11-18T09:53:16.031Z,11.4
2015-11-18T09:54:15.971Z,11.3
2015-11-18T09:55:15.927Z,11.3
2015-11-18T09:56:15.867Z,11.3
2015-11-18T09:57:15.808Z,11.4
2015-11-18T09:58:15.763Z,11.5
2015-11-18T09:59:15.703Z,11.5
2015-11-18T10:00:15.659Z,11.5
2015-11-18T10:01:15.599Z,11.4
2015-11-18T10:02:15.540Z,11.5
2015-11-18T10:03:15.496Z,11.4
2015-11-18T10:04:15.452Z,11.4
2015-11-18T10:05:15.376Z,11.4
2015-11-18T10:06:15.332Z,11.3
2015-11-18T10:07:15.272Z,11.2
2015-11-18T10:08:15.210Z,11.1
2015-11-18T10:09:15.166Z,11.1
2015-11-18T10:10:15.105Z,11.1
2015-11-18T10:11:15.061Z,11.1
2015-11-18T10:12:15.018Z,11.1
2015-11-18T10:13:14.958Z,11.1
2015-11-18T10:14:14.899Z,11.2
2015-11-18T10:15:14.838Z,11.1
2015-11-18T10:16:14.794Z,11.1
2015-11-18T10:17:14.735Z,11.2
2015-11-18T10:18:14.690Z,11.2
2015-11-18T10:19:14.630Z,11.2
2015-11-18T10:20:14.586Z,11.3
2015-11-18T10:21:14.527Z,11.3
2015-11-18T10:22:14.466Z,11.3
2015-11-18T10:23:14.423Z,11.3
2015-11-18T10:24:14.363Z,11.4
2015-11-18T10:25:14.304Z,11.3
2015-11-18T10:26:14.260Z,11.4
2015-11-18T10:27:14.215Z,11.4
2015-11-18T10:28:14.155Z,11.4
2015-11-18T10:29:14.096Z,11.4
2015-11-18T10:30:14.052Z,11.5
2015-11-18T10:31:13.991Z,11.5
2015-11-18T10:32:13.948Z,11.5
2015-11-18T10:33:13.888Z,11.5
2015-11-18T10:34:13.828Z,11.5
2015-11-18T10:35:14.019Z,11.4
2015-11-18T10:36:13.724Z,11.4
2015-11-18T10:37:13.680Z,11.4
2015-11-18T10:38:13.620Z,11.4
2015-11-18T10:39:13.576Z,11.4
2015-11-18T10:40:13.517Z,11.3
2015-11-18T10:41:13.457Z,11.3
2015-11-18T10:42:13.413Z,11.3
2015-11-18T10:43:13.353Z,11.4
2015-11-18T10:44:13.309Z,11.4
2015-11-18T10:45:13.249Z,11.4
2015-11-18T10:46:13.190Z,11.4
2015-11-18T10:47:13.145Z,11.4
2015-11-18T10:48:13.085Z,11.4
2015-11-18T10:49:13.040Z,11.4
2015-11-18T10:50:12.978Z,11.4
2015-11-18T10:51:12.935Z,11.4
2015-11-18T10:52:12.875Z,11.4
2015-11-18T10:53:12.815Z,11.4
2015-11-18T10:54:12.771Z,11.4
2015-11-18T10:55:12.711Z,11.4
2015-11-18T10:56:12.668Z,11.4
2015-11-18T10:57:12.607Z,11.4
2015-11-18T10:58:12.547Z,11.4
2015-11-18T10:59:12.505Z,11.4
2015-11-18T11:00:12.444Z,11.3
2015-11-18T11:01:12.400Z,11.3
2015-11-18T11:02:12.341Z,11.3
2015-11-18T11:03:12.281Z,11.3
2015-11-18T11:04:12.237Z,11.3
2015-11-18T11:05:12.177Z,11.3
2015-11-18T11:06:12.133Z,11.3
2015-11-18T11:07:12.074Z,11.2
2015-11-18T11:08:12.029Z,11.1
2015-11-18T11:09:13.608Z,11.2
2015-11-18T11:10:13.415Z,11.1
2015-11-18T11:11:12.173Z,11.2
2015-11-18T11:12:11.847Z,11.3
2015-11-18T11:13:11.756Z,11.2
2015-11-18T11:14:11.695Z,11.2
2015-11-18T11:15:11.651Z,11.2
2015-11-18T11:16:11.608Z,11.2
2015-11-18T11:17:11.548Z,11.2
2015-11-18T11:18:11.489Z,11.2
2015-11-18T11:19:11.445Z,11.3
2015-11-18T11:20:11.400Z,11.3
2015-11-18T11:21:11.325Z,11.3
2015-11-18T11:22:11.280Z,11.4
2015-11-18T11:23:11.220Z,11.4
2015-11-18T11:24:11.175Z,11.4
2015-11-18T11:25:11.116Z,11.5
2015-11-18T11:26:11.056Z,11.5
2015-11-18T11:27:11.012Z,11.6
2015-11-18T11:28:10.953Z,11.6
2015-11-18T11:30:10.849Z,11.5
2015-11-18T11:31:10.802Z,11.6
2015-11-18T11:32:10.742Z,11.6
2015-11-18T11:33:10.682Z,11.7
2015-11-18T11:34:10.638Z,11.8
2015-11-18T11:35:10.578Z,11.8
2015-11-18T11:36:10.535Z,11.8
2015-11-18T11:37:10.491Z,11.9
2015-11-18T11:38:10.415Z,12
2015-11-18T11:39:10.371Z,11.9
2015-11-18T11:40:10.327Z,11.9
2015-11-18T11:41:10.267Z,11.9
2015-11-18T11:42:10.207Z,11.9
2015-11-18T11:43:10.163Z,11.9
2015-11-18T11:44:10.103Z,11.9
2015-11-18T11:45:10.059Z,11.9
2015-11-18T11:46:09.999Z,11.8
2015-11-18T11:47:09.955Z,11.8
2015-11-18T11:48:09.896Z,11.8
2015-11-18T11:49:09.836Z,11.8
2015-11-18T11:50:09.791Z,11.8
2015-11-18T11:51:09.732Z,11.9
2015-11-18T11:52:09.688Z,11.9
2015-11-18T11:53:09.628Z,12.2
2015-11-18T11:54:09.568Z,12.5
2015-11-18T11:55:09.524Z,12.9
2015-11-18T11:56:09.465Z,12.9
2015-11-18T11:57:09.405Z,12.7
2015-11-18T11:58:09.360Z,12.7
2015-11-18T11:59:09.301Z,12.7
2015-11-18T12:00:09.257Z,12.5
2015-11-18T12:01:09.197Z,12.4
2015-11-18T12:02:09.152Z,12.3
2015-11-18T12:03:09.110Z,12.1
2015-11-18T12:04:09.049Z,12.1
2015-11-18T12:05:08.990Z,12.2
2015-11-18T12:06:08.945Z,12.4
2015-11-18T12:07:08.885Z,12.7
2015-11-18T12:08:08.841Z,13
2015-11-18T12:09:08.782Z,13.1
2015-11-18T12:10:08.735Z,12.9
2015-11-18T12:11:08.674Z,12.9
2015-11-18T12:12:08.615Z,12.6
2015-11-18T12:13:08.571Z,12.7
2015-11-18T12:14:08.512Z,12.5
2015-11-18T12:15:08.467Z,12.6
2015-11-18T12:16:08.408Z,12.5
2015-11-18T12:17:08.363Z,12.6
2015-11-18T12:18:08.303Z,12.6
2015-11-18T12:19:08.259Z,12.8
2015-11-18T12:20:08.215Z,13
2015-11-18T12:21:08.140Z,13.3
2015-11-18T12:22:08.096Z,13.1
2015-11-18T12:23:08.036Z,13
2015-11-18T12:24:07.993Z,13.2
2015-11-18T12:25:07.932Z,13.1
2015-11-18T12:26:07.888Z,13.4
2015-11-18T12:27:07.828Z,13.6
2015-11-18T12:28:07.768Z,13.8
2015-11-18T12:29:07.724Z,13.7
2015-11-18T12:30:07.681Z,13.9
2015-11-18T12:31:07.620Z,14
2015-11-18T12:32:07.577Z,14
2015-11-18T12:33:07.517Z,13.8
2015-11-18T12:34:07.473Z,13.8
2015-11-18T12:35:07.413Z,13.6
2015-11-18T12:36:07.354Z,13.5
2015-11-18T12:37:07.309Z,13.5
2015-11-18T12:38:07.249Z,13.4
2015-11-18T12:39:07.206Z,13.2
2015-11-18T12:40:07.161Z,13.1
2015-11-18T12:41:07.101Z,13.3
2015-11-18T12:42:07.042Z,13.6
2015-11-18T12:43:06.997Z,13.6
2015-11-18T12:44:06.938Z,13.7
2015-11-18T12:45:06.893Z,13.9
2015-11-18T12:46:06.834Z,13.7
2015-11-18T12:47:06.771Z,13.4
2015-11-18T12:48:06.728Z,13.2
2015-11-18T12:49:06.668Z,13
2015-11-18T12:50:06.623Z,12.7
2015-11-18T12:51:06.563Z,12.7
2015-11-18T12:52:06.519Z,12.7
2015-11-18T12:53:06.460Z,12.6
2015-11-18T12:54:06.415Z,12.3
2015-11-18T12:55:06.356Z,12.4
2015-11-18T12:56:06.295Z,12.5
2015-11-18T12:57:06.252Z,12.5
2015-11-18T12:58:06.209Z,12.5
2015-11-18T12:59:06.136Z,12.4
2015-11-18T13:00:06.081Z,12.4
2015-11-18T13:01:06.038Z,12.5
2015-11-18T13:02:05.977Z,12.5
2015-11-18T13:03:05.934Z,12.7
2015-11-18T13:04:05.874Z,12.6
2015-11-18T13:05:05.815Z,12.3
2015-11-18T13:06:05.771Z,12.5
2015-11-18T13:07:05.727Z,12.6
2015-11-18T13:08:05.682Z,12.6
2015-11-18T13:09:05.621Z,12.6
2015-11-18T13:10:05.562Z,12.5
2015-11-18T13:11:05.534Z,12.5
2015-11-18T13:12:05.459Z,12.4
2015-11-18T13:13:05.398Z,12.4
2015-11-18T13:14:05.355Z,12.4
2015-11-18T13:15:05.295Z,12.3
2015-11-18T13:16:05.251Z,12.3
2015-11-18T13:17:05.190Z,12.3
2015-11-18T13:18:05.146Z,12.3
2015-11-18T13:19:05.088Z,12.3
2015-11-18T13:20:05.043Z,12.3
2015-11-18T13:21:04.984Z,12.3
2015-11-18T13:22:04.924Z,12.3
2015-11-18T13:23:04.896Z,12.3
2015-11-18T13:24:04.836Z,12.2
2015-11-18T13:25:04.776Z,12.2